Barrington Passage, Canada
Current Conditions -  °F | °C
As of 12:00 PM on Saturday 25 Oct 2014 (Local Time) from CYQI Reporting Station
Drizzle Drizzle  
Wind Chill: 43°   Ceiling: 800
Heat Index: 48°   Visibility: 6mi
Dew Point: 46°   Wind: 13mph
Humidity: 93%   Direction: 330°NNW
Pressure: 29.58"   Gusts: NA
Location:  43.52°N, 65.6°W
Report Text: CYQI 251500Z 33011KT 6SM -DZ BR OVC008 09/08 A2958 RMK SF8 SLP017
Loading
Personal Weather Stations






























Interactive Weather Map
Tropical Storm Tracking
New forecast layout! Learn more

10-Day Weather Forecast

Advertisements
Track Severe Weather on mobile